Time;durP1;ratioP1;P1;durP2;ratioP2;P2;SDS_P1;SDS_P2;PMS_P1;PMS_P2;Temp;Humidity;BMP_temperature;BMP_pressure;BME280_temperature;BME280_humidity;BME280_pressure;Samples;Min_cycle;Max_cycle;Signal;HPM_P1;HPM_P2
2022/01/11 00:00:04;;;;;;;79.53;29.40;;;1.50;99.90;;;;;;5002165;28;20180;-73
2022/01/11 00:02:31;;;;;;;52.13;31.75;;;1.50;99.90;;;;;;5000740;28;20050;-74
2022/01/11 00:04:57;;;;;;;63.70;29.98;;;1.40;99.90;;;;;;5000791;28;20042;-74
2022/01/11 00:07:23;;;;;;;78.20;30.45;;;1.40;99.90;;;;;;5001531;28;20041;-73
2022/01/11 00:09:51;;;;;;;76.82;30.55;;;1.40;99.90;;;;;;4997199;28;20041;-74
2022/01/11 00:12:17;;;;;;;46.53;30.25;;;1.40;99.90;;;;;;5000727;28;20099;-74
2022/01/11 00:14:43;;;;;;;54.85;30.15;;;1.30;99.90;;;;;;5001370;28;20057;-73
2022/01/11 00:17:09;;;;;;;56.03;31.17;;;1.30;99.90;;;;;;5002003;28;20523;-74
2022/01/11 00:19:34;;;;;;;47.78;31.17;;;1.30;99.90;;;;;;5004466;28;20227;-74
2022/01/11 00:22:05;;;;;;;73.55;31.40;;;1.30;99.90;;;;;;5001416;28;20972;-73
2022/01/11 00:24:32;;;;;;;64.18;29.67;;;1.30;99.90;;;;;;5005253;28;20049;-74
2022/01/11 00:27:00;;;;;;;81.15;31.35;;;1.30;99.90;;;;;;5007202;28;20052;-74
2022/01/11 00:29:25;;;;;;;65.03;30.52;;;1.30;99.90;;;;;;5004769;28;20504;-73
2022/01/11 00:31:52;;;;;;;109.28;33.35;;;1.30;99.90;;;;;;5000061;28;20034;-73
2022/01/11 00:34:20;;;;;;;110.65;31.90;;;1.30;99.90;;;;;;5004038;28;20503;-74
2022/01/11 00:36:46;;;;;;;131.57;32.67;;;1.20;99.90;;;;;;4997474;28;20511;-74
2022/01/11 00:39:13;;;;;;;113.90;31.65;;;1.20;99.90;;;;;;5003117;28;20042;-74
2022/01/11 00:41:40;;;;;;;44.72;28.35;;;1.20;99.90;;;;;;5007831;28;20057;-74
2022/01/11 00:44:06;;;;;;;66.25;29.60;;;1.10;99.90;;;;;;5006271;28;20128;-75
2022/01/11 00:46:32;;;;;;;105.90;30.35;;;1.10;99.90;;;;;;5000047;28;20050;-74
2022/01/11 00:48:58;;;;;;;120.88;30.65;;;1.10;99.90;;;;;;5006393;28;20570;-74
2022/01/11 00:51:24;;;;;;;65.65;29.13;;;1.10;99.90;;;;;;5000327;28;20704;-73
2022/01/11 00:53:49;;;;;;;60.03;28.92;;;1.10;99.90;;;;;;4999423;28;20529;-74
2022/01/11 00:56:15;;;;;;;97.72;30.65;;;1.10;99.90;;;;;;5000208;28;20038;-74
2022/01/11 00:58:41;;;;;;;127.43;31.35;;;1.10;99.90;;;;;;4996736;28;20042;-74
2022/01/11 01:01:07;;;;;;;68.43;27.92;;;1.10;99.90;;;;;;5003481;28;20050;-74
2022/01/11 01:03:34;;;;;;;66.28;29.02;;;1.00;99.90;;;;;;4998537;28;20045;-74
2022/01/11 01:06:00;;;;;;;70.47;28.88;;;1.10;99.90;;;;;;4998137;28;20192;-74
2022/01/11 01:08:26;;;;;;;82.55;28.58;;;1.10;99.90;;;;;;4998973;28;20058;-74
2022/01/11 01:10:52;;;;;;;87.43;27.63;;;1.10;99.90;;;;;;5002724;28;20072;-73
2022/01/11 01:13:22;;;;;;;73.10;29.67;;;1.10;99.90;;;;;;4997907;28;20045;-74
2022/01/11 01:15:49;;;;;;;59.50;27.83;;;1.00;99.90;;;;;;5003205;28;20034;-75
2022/01/11 01:18:16;;;;;;;;;;;1.00;99.90;;;;;;5005075;28;20060;-74
2022/01/11 01:20:44;;;;;;;84.85;29.25;;;1.00;99.90;;;;;;5003688;28;19921;-73
2022/01/11 01:23:09;;;;;;;94.90;28.70;;;1.00;99.90;;;;;;4999967;28;20509;-75
2022/01/11 01:25:35;;;;;;;109.82;29.10;;;1.00;99.90;;;;;;4999988;28;20156;-74
2022/01/11 01:28:01;;;;;;;97.57;29.38;;;1.00;99.90;;;;;;4995993;28;20069;-74
2022/01/11 01:30:26;;;;;;;51.67;27.40;;;1.00;99.90;;;;;;5000324;28;20141;-74
2022/01/11 01:32:53;;;;;;;96.88;30.50;;;1.00;99.90;;;;;;5004012;28;20073;-73
2022/01/11 01:35:21;;;;;;;87.50;29.75;;;1.00;99.90;;;;;;5000418;28;20046;-73
2022/01/11 01:37:47;;;;;;;52.60;27.23;;;1.00;99.90;;;;;;4998784;28;20053;-74
2022/01/11 01:40:17;;;;;;;51.47;26.40;;;1.00;99.90;;;;;;5001074;28;20041;-73
2022/01/11 01:42:43;;;;;;;68.38;27.83;;;1.00;99.90;;;;;;5004130;28;20046;-74
2022/01/11 01:45:09;;;;;;;67.10;27.17;;;1.00;99.90;;;;;;4996728;28;20124;-74
2022/01/11 01:47:35;;;;;;;48.38;27.58;;;1.10;99.90;;;;;;5004298;28;20132;-74
2022/01/11 01:50:01;;;;;;;41.92;26.20;;;1.10;99.90;;;;;;4989219;28;20136;-74
2022/01/11 01:52:26;;;;;;;38.60;28.27;;;1.10;99.90;;;;;;5006892;28;20487;-74
2022/01/11 01:54:53;;;;;;;76.32;29.15;;;1.10;99.90;;;;;;5001021;28;20539;-74
2022/01/11 01:57:18;;;;;;;56.50;27.33;;;1.20;99.90;;;;;;5004421;28;20049;-74
2022/01/11 01:59:44;;;;;;;39.38;27.10;;;1.20;99.90;;;;;;4997585;28;20394;-74
2022/01/11 02:02:12;;;;;;;69.80;27.13;;;1.20;99.90;;;;;;4999466;28;20499;-74
2022/01/11 02:04:37;;;;;;;38.88;26.48;;;1.20;99.90;;;;;;4998033;28;20046;-74
2022/01/11 02:07:04;;;;;;;52.08;22.70;;;1.20;99.90;;;;;;4997861;28;20046;-73
2022/01/11 02:09:30;;;;;;;58.25;27.45;;;1.20;99.90;;;;;;5003005;28;20108;-74
2022/01/11 02:11:56;;;;;;;60.10;27.73;;;1.10;99.90;;;;;;5001728;28;20452;-75
2022/01/11 02:14:22;;;;;;;63.55;27.60;;;1.10;99.90;;;;;;5002974;28;20068;-74
2022/01/11 02:16:47;;;;;;;64.60;26.50;;;1.20;99.90;;;;;;5005981;28;20049;-73
2022/01/11 02:19:13;;;;;;;49.55;27.00;;;1.20;99.90;;;;;;4963794;28;20595;-73
2022/01/11 02:21:39;;;;;;;35.03;25.23;;;1.20;99.90;;;;;;4963358;28;20047;-74
2022/01/11 02:24:05;;;;;;;52.42;27.08;;;1.10;99.90;;;;;;4966805;28;20042;-74
2022/01/11 02:26:31;;;;;;;62.40;27.30;;;1.10;99.90;;;;;;4965052;28;20470;-74
2022/01/11 02:28:57;;;;;;;48.58;27.88;;;1.00;99.90;;;;;;4983334;28;20140;-74
2022/01/11 02:31:22;;;;;;;60.63;25.67;;;1.00;99.90;;;;;;4968767;28;20038;-74
2022/01/11 02:33:51;;;;;;;50.17;28.38;;;1.00;99.90;;;;;;4983071;28;20107;-74
2022/01/11 02:36:31;;;;;;;44.08;27.23;;;1.00;99.90;;;;;;4966720;28;20054;-74
2022/01/11 02:38:58;;;;;;;86.57;29.05;;;0.90;99.90;;;;;;4966218;28;20050;-75
2022/01/11 02:41:30;;;;;;;104.10;29.27;;;0.90;99.90;;;;;;4964718;28;20046;-74
2022/01/11 02:43:57;;;;;;;62.28;29.08;;;0.90;99.90;;;;;;4966979;28;20541;-74
2022/01/11 02:46:23;;;;;;;78.20;30.25;;;0.90;99.90;;;;;;4965759;28;20157;-74
2022/01/11 02:48:51;;;;;;;129.57;30.80;;;0.80;99.90;;;;;;4981615;28;20049;-74
2022/01/11 02:51:17;;;;;;;56.53;29.60;;;0.80;99.90;;;;;;4968364;28;20050;-73
2022/01/11 02:53:50;;;;;;;73.32;29.65;;;0.80;99.90;;;;;;4961628;28;20046;-74
2022/01/11 02:56:18;;;;;;;79.82;30.90;;;0.70;99.90;;;;;;4964325;28;20061;-74
2022/01/11 02:58:44;;;;;;;89.53;30.40;;;0.70;99.90;;;;;;4985169;28;20030;-74
2022/01/11 03:01:11;;;;;;;62.35;28.55;;;0.70;99.90;;;;;;4972783;28;20050;-73
2022/01/11 03:03:37;;;;;;;51.75;29.40;;;0.70;99.90;;;;;;4966566;28;20526;-73
2022/01/11 03:06:04;;;;;;;71.70;30.65;;;0.70;99.90;;;;;;4982995;28;20038;-73
2022/01/11 03:08:36;;;;;;;46.50;28.35;;;0.70;99.90;;;;;;4981952;28;20082;-73
2022/01/11 03:11:02;;;;;;;78.43;29.08;;;0.80;99.90;;;;;;4984499;28;20049;-73
2022/01/11 03:13:28;;;;;;;48.13;28.02;;;0.80;99.90;;;;;;4966381;28;20050;-74
2022/01/11 03:15:54;;;;;;;56.90;28.95;;;0.80;99.90;;;;;;4970413;28;20051;-73
2022/01/11 03:18:21;;;;;;;71.93;29.15;;;0.70;99.90;;;;;;4988208;28;20062;-74
2022/01/11 03:20:49;;;;;;;107.40;30.07;;;0.80;99.90;;;;;;4999607;28;20037;-74
2022/01/11 03:23:18;;;;;;;73.85;32.78;;;0.70;99.90;;;;;;5006196;28;20404;-74
2022/01/11 03:25:44;;;;;;;65.13;30.27;;;0.80;99.90;;;;;;5000069;28;20054;-74
2022/01/11 03:28:10;;;;;;;54.40;30.85;;;0.80;99.90;;;;;;4998964;28;20034;-73
2022/01/11 03:30:35;;;;;;;65.45;31.17;;;0.80;99.90;;;;;;5005318;28;20069;-73
2022/01/11 03:33:02;;;;;;;67.35;32.47;;;0.80;99.90;;;;;;5002099;28;20408;-74
2022/01/11 03:35:29;;;;;;;68.35;32.17;;;0.90;99.90;;;;;;5001912;28;20116;-74
2022/01/11 03:37:55;;;;;;;51.77;29.80;;;0.90;99.90;;;;;;5000715;28;20038;-74
2022/01/11 03:40:23;;;;;;;98.15;31.17;;;0.90;99.90;;;;;;5002949;28;20042;-75
2022/01/11 03:42:49;;;;;;;58.75;27.40;;;0.90;99.90;;;;;;5003869;28;20405;-74
2022/01/11 03:45:16;;;;;;;44.35;28.42;;;0.80;99.90;;;;;;5002471;28;20061;-74
2022/01/11 03:47:42;;;;;;;91.75;31.08;;;0.80;99.90;;;;;;5005017;28;20514;-74
2022/01/11 03:50:10;;;;;;;85.80;27.55;;;0.80;99.90;;;;;;5003241;28;20049;-73
2022/01/11 03:52:36;;;;;;;76.63;30.98;;;0.80;99.90;;;;;;5001113;28;20054;-73
2022/01/11 03:55:06;;;;;;;83.18;29.30;;;0.70;99.90;;;;;;5001492;28;20037;-75
2022/01/11 03:57:32;;;;;;;100.60;31.55;;;0.70;99.90;;;;;;5004413;28;20065;-74
2022/01/11 04:00:00;;;;;;;78.60;30.80;;;0.70;99.90;;;;;;5000802;28;20181;-74
2022/01/11 04:02:27;;;;;;;65.72;31.42;;;0.70;99.90;;;;;;4998611;28;20057;-74
2022/01/11 04:04:53;;;;;;;65.65;31.00;;;0.60;99.90;;;;;;5006510;28;20100;-74
2022/01/11 04:07:24;;;;;;;61.55;29.52;;;0.70;99.90;;;;;;5006164;28;20038;-74
2022/01/11 04:09:51;;;;;;;60.53;29.20;;;0.70;99.90;;;;;;5020623;28;20697;-74
2022/01/11 04:12:17;;;;;;;66.78;30.08;;;0.60;99.90;;;;;;5010193;28;20381;-74
2022/01/11 04:14:43;;;;;;;53.63;29.58;;;0.60;99.90;;;;;;5001373;28;20137;-73
2022/01/11 04:17:09;;;;;;;49.38;27.85;;;0.60;99.90;;;;;;5007517;28;20038;-75
2022/01/11 04:19:35;;;;;;;50.15;30.27;;;0.60;99.90;;;;;;5006826;28;20524;-75
2022/01/11 04:22:02;;;;;;;71.57;31.63;;;0.60;99.90;;;;;;5000728;28;20076;-74
2022/01/11 04:24:27;;;;;;;63.65;29.45;;;0.60;99.90;;;;;;5000257;28;20053;-74
2022/01/11 04:26:53;;;;;;;50.13;30.85;;;0.50;99.90;;;;;;5000672;28;20897;-74
2022/01/11 04:29:19;;;;;;;50.78;29.15;;;0.50;99.90;;;;;;5000877;28;20056;-73
2022/01/11 04:31:44;;;;;;;53.85;30.15;;;0.60;99.90;;;;;;4999570;28;20049;-74
2022/01/11 04:34:10;;;;;;;42.78;29.92;;;0.60;99.90;;;;;;5001325;28;20132;-74
2022/01/11 04:36:37;;;;;;;45.47;30.10;;;0.50;99.90;;;;;;5000763;28;20047;-73
2022/01/11 04:39:10;;;;;;;44.75;30.45;;;0.50;99.90;;;;;;4998382;28;20056;-74
2022/01/11 04:41:36;;;;;;;43.90;32.65;;;0.50;99.90;;;;;;5004940;28;20056;-74
2022/01/11 04:44:02;;;;;;;53.15;30.60;;;0.60;99.90;;;;;;5000611;28;20050;-74
2022/01/11 04:46:27;;;;;;;54.88;33.40;;;0.60;99.90;;;;;;5000238;28;20469;-74
2022/01/11 04:48:54;;;;;;;61.25;34.15;;;0.60;99.90;;;;;;4998798;28;20041;-74
2022/01/11 04:51:21;;;;;;;44.00;31.15;;;0.60;99.90;;;;;;5000562;28;20549;-73
2022/01/11 04:53:47;;;;;;;49.65;32.88;;;0.60;99.90;;;;;;4998851;28;20548;-74
2022/01/11 04:56:13;;;;;;;51.07;33.17;;;0.70;99.90;;;;;;5000722;28;20034;-73
2022/01/11 04:58:39;;;;;;;57.15;34.50;;;0.70;99.90;;;;;;4999244;28;20344;-74
2022/01/11 05:01:05;;;;;;;72.15;35.88;;;0.70;99.90;;;;;;5002054;28;20045;-74
2022/01/11 05:03:31;;;;;;;59.63;36.03;;;0.70;99.90;;;;;;4999499;28;20152;-75
2022/01/11 05:05:57;;;;;;;81.05;36.08;;;0.70;99.90;;;;;;4998403;28;20045;-74
2022/01/11 05:08:23;;;;;;;66.45;36.90;;;0.70;99.90;;;;;;4998104;28;20049;-73
2022/01/11 05:10:48;;;;;;;65.50;36.53;;;0.70;99.90;;;;;;5005188;28;20044;-73
2022/01/11 05:13:16;;;;;;;74.90;37.50;;;0.70;99.90;;;;;;5002329;28;20042;-74
2022/01/11 05:15:42;;;;;;;55.42;35.75;;;0.70;99.90;;;;;;5003150;28;20068;-74
2022/01/11 05:18:09;;;;;;;56.13;37.42;;;0.70;99.90;;;;;;5000530;28;20058;-74
2022/01/11 05:20:36;;;;;;;67.67;37.67;;;0.70;99.90;;;;;;5004857;28;20049;-73
2022/01/11 05:23:02;;;;;;;71.85;42.92;;;0.80;99.90;;;;;;5003565;28;20520;-75
2022/01/11 05:25:28;;;;;;;66.18;37.20;;;0.80;99.90;;;;;;5007391;28;20045;-75
2022/01/11 05:27:54;;;;;;;85.68;44.92;;;0.80;99.90;;;;;;5004585;28;20052;-74
2022/01/11 05:30:20;;;;;;;75.53;43.35;;;0.90;99.90;;;;;;5006394;28;20057;-74
2022/01/11 05:32:48;;;;;;;71.78;43.25;;;0.90;99.90;;;;;;5006591;28;20485;-74
2022/01/11 05:35:16;;;;;;;75.05;40.03;;;0.80;99.90;;;;;;5005599;28;20046;-74
2022/01/11 05:37:42;;;;;;;83.40;44.78;;;0.90;99.90;;;;;;4998186;28;20088;-75
2022/01/11 05:40:09;;;;;;;71.45;42.00;;;0.90;99.90;;;;;;4997292;28;20045;-74
2022/01/11 05:42:35;;;;;;;76.00;38.55;;;1.00;99.90;;;;;;4998306;28;20037;-74
2022/01/11 05:45:02;;;;;;;64.55;38.50;;;1.00;99.90;;;;;;5000881;28;20048;-75
2022/01/11 05:47:28;;;;;;;75.20;40.90;;;0.90;99.90;;;;;;5000956;28;20397;-74
2022/01/11 05:49:53;;;;;;;74.10;41.55;;;0.90;99.90;;;;;;4999214;28;20037;-74
2022/01/11 05:52:19;;;;;;;77.63;42.53;;;0.90;99.90;;;;;;4999054;28;20129;-74
2022/01/11 05:54:45;;;;;;;73.13;41.47;;;0.90;99.90;;;;;;4995536;28;20053;-74
2022/01/11 05:57:10;;;;;;;75.70;39.45;;;0.80;99.90;;;;;;4999760;28;22084;-74
2022/01/11 05:59:36;;;;;;;88.30;42.72;;;0.90;99.90;;;;;;4999950;28;20440;-74
2022/01/11 06:02:02;;;;;;;84.45;41.72;;;0.80;99.90;;;;;;5002438;28;20042;-74
2022/01/11 06:04:28;;;;;;;66.63;38.20;;;0.80;99.90;;;;;;4998952;28;20787;-74
2022/01/11 06:06:53;;;;;;;73.50;42.78;;;0.80;99.90;;;;;;4996453;28;20100;-74
2022/01/11 06:09:19;;;;;;;60.03;39.30;;;0.80;99.90;;;;;;4998576;28;20049;-74
2022/01/11 06:11:45;;;;;;;59.20;39.58;;;0.80;99.90;;;;;;5002129;28;20050;-74
2022/01/11 06:14:10;;;;;;;62.13;40.13;;;0.90;99.90;;;;;;5001799;28;20073;-74
2022/01/11 06:16:36;;;;;;;65.20;42.08;;;0.90;99.90;;;;;;5003267;28;20045;-74
2022/01/11 06:19:04;;;;;;;67.90;41.53;;;0.90;99.90;;;;;;4999667;28;20056;-72
2022/01/11 06:21:29;;;;;;;61.92;42.55;;;0.80;99.90;;;;;;5000182;28;20057;-76
2022/01/11 06:23:55;;;;;;;68.07;40.47;;;0.80;99.90;;;;;;5000453;28;20079;-73
2022/01/11 06:26:21;;;;;;;61.53;37.67;;;0.80;99.90;;;;;;4995679;28;20129;-73
2022/01/11 06:28:47;;;;;;;78.00;43.90;;;0.80;99.90;;;;;;5001644;28;20050;-73
2022/01/11 06:31:13;;;;;;;63.63;41.35;;;0.90;99.90;;;;;;4997763;28;20124;-73
2022/01/11 06:33:39;;;;;;;66.18;40.38;;;0.80;99.90;;;;;;4997592;28;20049;-73
2022/01/11 06:36:10;;;;;;;81.13;44.33;;;0.80;99.90;;;;;;5002067;28;20057;-73
2022/01/11 06:38:37;;;;;;;69.97;43.22;;;0.80;99.90;;;;;;5004497;28;21198;-73
2022/01/11 06:41:03;;;;;;;;;;;0.80;99.90;;;;;;5001126;28;20046;-73
2022/01/11 06:43:28;;;;;;;57.25;36.67;;;0.80;99.90;;;;;;4999094;28;19927;-73
2022/01/11 06:45:54;;;;;;;67.13;39.80;;;0.80;99.90;;;;;;4998903;28;20050;-74
2022/01/11 06:48:20;;;;;;;60.13;38.30;;;0.80;99.90;;;;;;4998713;28;20404;-74
2022/01/11 06:50:47;;;;;;;61.83;40.92;;;0.90;99.90;;;;;;5004312;28;20042;-75
2022/01/11 06:53:12;;;;;;;55.83;40.13;;;0.90;99.90;;;;;;5005257;28;20129;-74
2022/01/11 06:55:38;;;;;;;67.90;42.78;;;0.90;99.90;;;;;;5011803;28;20144;-75
2022/01/11 06:58:04;;;;;;;66.18;39.33;;;0.90;99.90;;;;;;5006192;28;20056;-72
2022/01/11 07:00:29;;;;;;;60.70;40.08;;;0.90;99.90;;;;;;5006284;28;20077;-74
2022/01/11 07:02:55;;;;;;;63.92;43.05;;;0.90;99.90;;;;;;5012873;28;20045;-74
2022/01/11 07:05:21;;;;;;;67.63;42.22;;;0.80;99.90;;;;;;5009150;28;20883;-74
2022/01/11 07:07:47;;;;;;;57.58;39.63;;;0.90;99.90;;;;;;5010240;28;20041;-74
2022/01/11 07:10:13;;;;;;;59.40;41.63;;;0.90;99.90;;;;;;5008431;28;20056;-74
2022/01/11 07:12:39;;;;;;;61.17;41.75;;;0.90;99.90;;;;;;5007564;28;20034;-74
2022/01/11 07:15:05;;;;;;;65.47;39.95;;;0.90;99.90;;;;;;5007203;28;20475;-74
2022/01/11 07:17:31;;;;;;;69.45;41.28;;;0.90;99.90;;;;;;5007407;28;20448;-74
2022/01/11 07:19:56;;;;;;;64.30;42.28;;;0.90;99.90;;;;;;5008340;28;20046;-74
2022/01/11 07:22:22;;;;;;;70.10;41.25;;;0.90;99.90;;;;;;5008188;28;20041;-74
2022/01/11 07:24:47;;;;;;;61.67;42.30;;;0.80;99.90;;;;;;5006343;28;20049;-74
2022/01/11 07:27:14;;;;;;;65.85;40.10;;;0.80;99.90;;;;;;5008889;28;20408;-74
2022/01/11 07:29:40;;;;;;;78.57;43.20;;;0.80;99.90;;;;;;5009350;28;20037;-74
2022/01/11 07:32:06;;;;;;;59.50;39.97;;;0.80;99.90;;;;;;5009216;28;20481;-73
2022/01/11 07:34:32;;;;;;;60.80;41.80;;;0.70;99.90;;;;;;5007544;28;20125;-74
2022/01/11 07:36:57;;;;;;;63.70;42.92;;;0.70;99.90;;;;;;5005576;28;20494;-74
2022/01/11 07:39:23;;;;;;;59.95;38.85;;;0.80;99.90;;;;;;5009958;28;20447;-72
2022/01/11 07:41:50;;;;;;;62.38;41.20;;;0.80;99.90;;;;;;5007601;28;20060;-72
2022/01/11 07:44:16;;;;;;;58.95;39.80;;;0.80;99.90;;;;;;5004780;28;20077;-72
2022/01/11 07:46:43;;;;;;;58.70;37.80;;;0.80;99.90;;;;;;5007209;28;20050;-75
2022/01/11 07:49:09;;;;;;;62.92;43.00;;;0.80;99.90;;;;;;5006975;28;20060;-72
2022/01/11 07:51:35;;;;;;;67.60;43.05;;;0.80;99.90;;;;;;5006776;28;20030;-72
2022/01/11 07:54:01;;;;;;;60.20;41.28;;;0.80;99.90;;;;;;5009451;28;20041;-72
2022/01/11 07:56:27;;;;;;;55.78;39.40;;;0.80;99.90;;;;;;5007486;28;20053;-72
2022/01/11 07:58:52;;;;;;;60.40;38.30;;;0.80;99.90;;;;;;5006183;28;20038;-72
2022/01/11 08:01:18;;;;;;;64.47;41.35;;;0.80;99.90;;;;;;5006699;28;20132;-72
2022/01/11 08:03:46;;;;;;;63.08;40.15;;;0.80;99.90;;;;;;5006701;28;20411;-73
2022/01/11 08:06:13;;;;;;;60.65;39.40;;;0.70;99.90;;;;;;5007852;28;20049;-72
2022/01/11 08:08:38;;;;;;;67.22;42.38;;;0.70;99.90;;;;;;5005537;28;20046;-73
2022/01/11 08:11:04;;;;;;;69.53;44.45;;;0.70;99.90;;;;;;5005860;28;20046;-74
2022/01/11 08:13:30;;;;;;;58.85;41.38;;;0.70;99.90;;;;;;5008564;28;20041;-72
2022/01/11 08:15:55;;;;;;;61.15;38.97;;;0.70;99.90;;;;;;5009617;28;20069;-74
2022/01/11 08:18:21;;;;;;;64.80;42.20;;;0.70;99.90;;;;;;5004238;28;20054;-70
2022/01/11 08:20:47;;;;;;;56.50;37.55;;;0.80;99.90;;;;;;5008061;28;20060;-70
2022/01/11 08:23:13;;;;;;;65.38;43.22;;;0.80;99.90;;;;;;5008541;28;20046;-70
2022/01/11 08:25:39;;;;;;;67.20;44.13;;;0.80;99.90;;;;;;5008306;28;20049;-70
2022/01/11 08:28:05;;;;;;;64.22;40.33;;;0.90;99.90;;;;;;5008568;28;20510;-71
2022/01/11 08:30:32;;;;;;;60.22;40.40;;;0.90;99.90;;;;;;5009893;28;20099;-71
2022/01/11 08:32:57;;;;;;;60.90;43.10;;;0.90;99.90;;;;;;5008164;28;20081;-71
2022/01/11 08:35:24;;;;;;;63.92;39.42;;;1.00;99.90;;;;;;5009524;28;20124;-70
2022/01/11 08:37:50;;;;;;;60.72;42.35;;;1.00;99.90;;;;;;5007314;28;20042;-70
2022/01/11 08:40:16;;;;;;;74.82;48.97;;;1.00;99.90;;;;;;5010882;28;20053;-71
2022/01/11 08:42:42;;;;;;;111.82;66.07;;;1.00;99.90;;;;;;5006610;28;20437;-72
2022/01/11 08:45:09;;;;;;;79.22;52.13;;;1.00;99.90;;;;;;5009366;28;20104;-72
2022/01/11 08:47:35;;;;;;;80.57;47.38;;;1.00;99.90;;;;;;5011063;28;20038;-69
2022/01/11 08:50:03;;;;;;;81.80;49.35;;;1.00;99.90;;;;;;5010118;28;20120;-71
2022/01/11 08:52:29;;;;;;;72.03;43.70;;;1.10;99.90;;;;;;5009622;28;20045;-71
2022/01/11 08:54:55;;;;;;;55.85;38.67;;;1.10;99.90;;;;;;5009003;28;20100;-71
2022/01/11 08:57:21;;;;;;;57.92;40.35;;;1.20;99.90;;;;;;5011055;28;20042;-72
2022/01/11 08:59:47;;;;;;;54.55;39.30;;;1.20;99.90;;;;;;5006802;28;20053;-70
2022/01/11 09:02:14;;;;;;;51.97;37.92;;;1.30;99.90;;;;;;5004301;28;20073;-71
2022/01/11 09:04:40;;;;;;;54.92;38.92;;;1.30;99.90;;;;;;5004154;28;20046;-71
2022/01/11 09:07:06;;;;;;;54.90;35.35;;;1.40;99.90;;;;;;5007929;28;20069;-71
2022/01/11 09:09:32;;;;;;;52.63;37.53;;;1.40;99.90;;;;;;5008217;28;20520;-72
2022/01/11 09:12:03;;;;;;;61.00;40.60;;;1.40;99.90;;;;;;5007132;28;20104;-72
2022/01/11 09:14:30;;;;;;;68.38;46.00;;;1.50;99.90;;;;;;5008243;28;20054;-71
2022/01/11 09:16:57;;;;;;;74.77;50.30;;;1.50;99.90;;;;;;5005585;28;20116;-71
2022/01/11 09:19:23;;;;;;;62.58;46.33;;;1.50;99.90;;;;;;5004142;28;20046;-72
2022/01/11 09:21:49;;;;;;;60.78;46.22;;;1.60;99.90;;;;;;5006404;28;20046;-72
2022/01/11 09:24:19;;;;;;;58.58;42.40;;;1.60;99.90;;;;;;5008200;28;20524;-72
2022/01/11 09:26:46;;;;;;;62.60;44.15;;;1.60;99.90;;;;;;5009413;28;20081;-73
2022/01/11 09:29:12;;;;;;;54.03;39.88;;;1.60;99.90;;;;;;5009510;28;20037;-71
2022/01/11 09:31:38;;;;;;;49.95;35.95;;;1.60;99.90;;;;;;5007589;28;20042;-72
2022/01/11 09:34:04;;;;;;;49.83;36.00;;;1.60;99.90;;;;;;5008281;28;20060;-72
2022/01/11 09:36:30;;;;;;;49.90;36.53;;;1.60;99.90;;;;;;5005817;28;20046;-72
2022/01/11 09:38:56;;;;;;;52.42;37.42;;;1.70;99.90;;;;;;5005928;28;20068;-73
2022/01/11 09:41:21;;;;;;;52.67;38.92;;;1.70;99.90;;;;;;5006713;28;20050;-72
2022/01/11 09:43:48;;;;;;;50.25;36.45;;;1.70;99.90;;;;;;5006619;28;20050;-72
2022/01/11 09:46:14;;;;;;;51.93;38.47;;;1.70;99.90;;;;;;5005444;28;20116;-72
2022/01/11 09:48:41;;;;;;;50.03;36.30;;;1.80;99.90;;;;;;5004598;28;20053;-73
2022/01/11 09:51:07;;;;;;;48.80;38.58;;;1.80;99.90;;;;;;5007428;28;20037;-71
2022/01/11 09:53:32;;;;;;;51.30;38.15;;;1.80;99.90;;;;;;5007325;28;20056;-72
2022/01/11 09:56:06;;;;;;;51.38;36.78;;;1.80;99.90;;;;;;5007955;28;20310;-73
2022/01/11 09:58:33;;;;;;;49.88;35.95;;;1.90;99.90;;;;;;5023575;28;20056;-71
2022/01/11 10:00:59;;;;;;;46.33;35.97;;;1.90;99.90;;;;;;5005483;28;20091;-70
2022/01/11 10:03:25;;;;;;;47.92;36.67;;;1.90;99.90;;;;;;5007923;28;20100;-70
2022/01/11 10:05:51;;;;;;;48.60;35.35;;;2.00;99.90;;;;;;5008249;28;20045;-70
2022/01/11 10:08:20;;;;;;;46.78;35.35;;;1.90;99.90;;;;;;5000774;28;20058;-71
2022/01/11 10:10:46;;;;;;;48.92;35.28;;;2.00;99.90;;;;;;5004929;28;20374;-71
2022/01/11 10:13:31;;;;;;;49.63;34.30;;;2.10;99.90;;;;;;5007867;28;20149;-70
2022/01/11 10:15:57;;;;;;;47.42;34.03;;;2.10;99.90;;;;;;5007982;28;20515;-72
2022/01/11 10:18:37;;;;;;;45.25;34.00;;;2.10;99.90;;;;;;5005392;28;20050;-71
2022/01/11 10:21:31;;;;;;;43.05;32.60;;;2.10;99.90;;;;;;4997892;28;20556;-71
2022/01/11 10:23:57;;;;;;;44.58;32.92;;;2.10;99.90;;;;;;5005684;28;20104;-71
2022/01/11 10:26:45;;;;;;;47.08;31.48;;;2.10;99.90;;;;;;5006537;28;20050;-71
2022/01/11 10:29:33;;;;;;;47.45;33.50;;;2.10;99.90;;;;;;5004356;28;20486;-70
2022/01/11 10:32:01;;;;;;;41.80;30.15;;;2.10;99.90;;;;;;5010797;28;20054;-71
2022/01/11 10:34:34;;;;;;;41.97;29.27;;;2.10;99.90;;;;;;5010014;28;21759;-70
2022/01/11 10:37:03;;;;;;;40.55;30.88;;;2.10;99.90;;;;;;5004986;28;20047;-72
2022/01/11 10:39:33;;;;;;;43.90;33.03;;;2.10;99.90;;;;;;4997704;28;20512;-71
2022/01/11 10:42:00;;;;;;;40.88;31.75;;;2.10;99.90;;;;;;5009460;28;20049;-72
2022/01/11 10:44:50;;;;;;;40.85;31.05;;;2.10;99.90;;;;;;5007436;28;20054;-73
2022/01/11 10:47:25;;;;;;;45.28;33.35;;;2.20;99.90;;;;;;4997052;28;20532;-72
2022/01/11 10:49:58;;;;;;;42.17;32.35;;;2.10;99.90;;;;;;5009401;28;20054;-72
2022/01/11 10:52:27;;;;;;;44.53;33.15;;;2.20;99.90;;;;;;5010995;28;20045;-73
2022/01/11 10:54:53;;;;;;;48.22;35.80;;;2.20;99.90;;;;;;5009107;28;20073;-72
2022/01/11 10:57:31;;;;;;;45.03;34.15;;;2.10;99.90;;;;;;4994710;28;20123;-70
2022/01/11 11:00:05;;;;;;;46.17;35.55;;;2.20;99.90;;;;;;5005865;28;20049;-71
2022/01/11 11:02:31;;;;;;;46.72;35.13;;;2.20;99.90;;;;;;5009095;28;20042;-72
2022/01/11 11:05:00;;;;;;;46.63;34.58;;;2.10;99.90;;;;;;5010292;28;20689;-70
2022/01/11 11:07:27;;;;;;;44.20;33.17;;;2.20;99.90;;;;;;5010747;28;20505;-70
2022/01/11 11:09:53;;;;;;;42.45;31.13;;;2.20;99.90;;;;;;5010946;28;20247;-70
2022/01/11 11:12:23;;;;;;;41.65;31.52;;;2.20;99.90;;;;;;5009627;28;20385;-70
2022/01/11 11:14:54;;;;;;;43.97;30.55;;;2.20;99.90;;;;;;4998535;28;20049;-73
2022/01/11 11:17:37;;;;;;;44.75;30.60;;;2.20;99.90;;;;;;5008346;28;20448;-71
2022/01/11 11:20:05;;;;;;;42.70;30.17;;;2.20;99.90;;;;;;4995531;28;20121;-71
2022/01/11 11:22:31;;;;;;;43.95;30.25;;;2.20;99.90;;;;;;5009274;28;20049;-70
2022/01/11 11:24:58;;;;;;;42.45;29.85;;;2.20;99.90;;;;;;5007744;28;20045;-70
2022/01/11 11:27:25;;;;;;;44.47;30.65;;;2.20;99.90;;;;;;5010181;28;20042;-71
2022/01/11 11:29:51;;;;;;;47.70;30.92;;;2.30;99.90;;;;;;5008385;28;20045;-72
2022/01/11 11:32:19;;;;;;;42.75;29.23;;;2.30;99.90;;;;;;5007798;28;20092;-71
2022/01/11 11:34:49;;;;;;;42.28;29.98;;;2.30;99.90;;;;;;5007730;28;20038;-71
2022/01/11 11:37:20;;;;;;;44.78;34.17;;;2.30;99.90;;;;;;5011124;28;20069;-74
2022/01/11 11:39:46;;;;;;;43.20;29.00;;;2.30;99.90;;;;;;5006207;28;20100;-74
2022/01/11 11:42:17;;;;;;;41.87;29.77;;;2.30;99.90;;;;;;5007969;28;20515;-72
2022/01/11 11:44:44;;;;;;;40.85;28.15;;;2.40;99.90;;;;;;5006783;28;20046;-72
2022/01/11 11:47:10;;;;;;;40.92;28.42;;;2.40;99.90;;;;;;4989572;28;20108;-72
2022/01/11 11:49:54;;;;;;;42.50;28.38;;;2.50;99.90;;;;;;4989423;28;20206;-72
2022/01/11 11:52:27;;;;;;;45.00;29.15;;;2.50;99.90;;;;;;5007927;28;20056;-73
2022/01/11 11:55:00;;;;;;;43.35;29.67;;;2.60;99.90;;;;;;5005658;28;20038;-70
2022/01/11 11:57:28;;;;;;;46.55;34.72;;;2.60;99.90;;;;;;5005008;28;20056;-71
2022/01/11 11:59:56;;;;;;;47.20;36.70;;;2.60;99.90;;;;;;5008823;28;20124;-71
2022/01/11 12:02:39;;;;;;;52.42;39.22;;;2.70;99.90;;;;;;5006150;28;20038;-71
2022/01/11 12:05:07;;;;;;;58.83;41.58;;;2.70;99.90;;;;;;5008229;28;20072;-72
2022/01/11 12:07:41;;;;;;;53.40;36.75;;;2.80;99.90;;;;;;5009430;28;20046;-72
2022/01/11 12:10:26;;;;;;;44.55;31.55;;;2.80;99.90;;;;;;5008125;28;20092;-74
2022/01/11 12:12:55;;;;;;;46.03;31.30;;;2.90;99.90;;;;;;5007252;28;20053;-71
2022/01/11 12:15:33;;;;;;;48.20;31.30;;;2.90;99.90;;;;;;5008912;28;20693;-73
2022/01/11 12:17:58;;;;;;;46.50;29.45;;;3.00;99.90;;;;;;5007725;28;20057;-73
2022/01/11 12:20:44;;;;;;;41.28;26.35;;;3.00;99.90;;;;;;5008709;28;20061;-73
2022/01/11 12:23:20;;;;;;;43.28;26.20;;;3.10;99.90;;;;;;5009520;28;20489;-72
2022/01/11 12:25:52;;;;;;;36.53;22.65;;;3.10;99.90;;;;;;5011221;28;20041;-73
2022/01/11 12:28:22;;;;;;;33.95;22.15;;;3.10;99.90;;;;;;5007439;28;20125;-74
2022/01/11 12:30:50;;;;;;;36.00;22.58;;;3.20;99.90;;;;;;5008599;28;20057;-73
2022/01/11 12:33:18;;;;;;;32.63;22.00;;;3.20;99.90;;;;;;5007746;28;20038;-73
2022/01/11 12:36:04;;;;;;;36.00;21.08;;;3.20;99.90;;;;;;5007774;28;20046;-73
2022/01/11 12:38:36;;;;;;;35.38;22.95;;;3.20;99.90;;;;;;5007907;28;20052;-69